Aviation Digital Data Service (ADDS)

Output produced by METARs form (1148 UTC 18 June 2019)
found at http://www.aviationweather.gov/metar/data/
 
Forecast for: VVCR (CAM RANH BAY , VN)
Text: TAF VVCR 181100Z 1812/1912 29006KT 9999 SCT015 SCT040
Forecast period: 1200 UTC 18 June 2019 to 0100 UTC 19 June 2019
Forecast type: FROM: standard forecast or significant change
Winds: from the WNW (290 degrees) at 7 MPH (6 knots; 3.1 m/s)
Visibility: 6 or more miles 10+ km)
Ceiling: at least 12,000 feet AGL
Clouds: scattered clouds at 1500 feet AGL
scattered clouds at 4000 feet AGL
Weather: no significant weather forecast for this period
Text: BECMG 1901/1902 12010KT
Forecast period: 0100 to 1200 UTC 19 June 2019
Forecast type: BECOMING: Conditions expected to become as follows by 0200 UTC 19 June 2019
Winds: from the ESE (120 degrees) at 12 MPH (10 knots; 5.1 m/s)
Visibility: 6 or more miles 10+ km)
Ceiling: at least 12,000 feet AGL
Clouds: scattered clouds at 1500 feet AGL
scattered clouds at 4000 feet AGL
Weather: no significant weather forecast for this period